Wittensville, Kentucky
Current Conditions -  °F | °C
As of 8:55 AM on Thursday 18 Dec 2014 (Local Time) from KSJS Reporting Station
Overcast Overcast  
Wind Chill: 25°   Ceiling: 2000
Heat Index: 30°   Visibility: 10mi
Dew Point: 25°   Wind: 5mph
Humidity: 81%   Direction: 20°NNE
Pressure: 30.25"   Gusts: NA
Location:  37.86°N, 82.8°W
Report Text: KSJS 181355Z AUTO 02004KT 10SM OVC020 M01/M04 A3025 RMK AO2 T10111040
Loading
Personal Weather Stations






























Interactive Weather Map New forecast layout! Learn more

10-Day Weather Forecast

Advertisements
Track Severe Weather on mobile